Time;durP1;ratioP1;P1;durP2;ratioP2;P2;SDS_P1;SDS_P2;PMS_P1;PMS_P2;Temp;Humidity;BMP_temperature;BMP_pressure;BME280_temperature;BME280_humidity;BME280_pressure;Samples;Min_cycle;Max_cycle;Signal;HPM_P1;HPM_P2
2022/08/14 00:02:06;;;;;;;;;2.25;2.00;;;;;26.60;26.90;99993.44;4976597;28;46282;-74
2022/08/14 00:04:33;;;;;;;;;3.50;3.00;;;;;26.55;27.06;99990.34;4976745;28;45383;-74
2022/08/14 00:06:59;;;;;;;;;2.25;2.25;;;;;26.51;26.77;99978.94;4976270;28;45320;-75
2022/08/14 00:09:24;;;;;;;;;2.75;2.75;;;;;26.48;26.59;99978.38;4976078;28;45460;-75
2022/08/14 00:11:50;;;;;;;;;2.75;2.75;;;;;26.46;27.04;99978.53;4976330;28;46179;-75
2022/08/14 00:14:15;;;;;;;;;4.00;4.00;;;;;26.41;27.13;99973.56;4976570;28;45499;-74
2022/08/14 00:16:41;;;;;;;;;3.75;3.75;;;;;26.37;27.25;99972.16;4976944;28;45388;-74
2022/08/14 00:19:07;;;;;;;;;3.00;2.00;;;;;26.29;27.06;99963.06;4974984;28;45410;-75
2022/08/14 00:21:32;;;;;;;;;3.00;3.00;;;;;26.28;27.25;99955.94;4975831;28;45575;-74
2022/08/14 00:23:58;;;;;;;;;3.25;3.00;;;;;26.26;27.23;99958.78;4975542;28;45340;-74
2022/08/14 00:26:23;;;;;;;;;4.00;4.00;;;;;26.18;27.62;99948.69;4974641;28;45443;-75
2022/08/14 00:28:50;;;;;;;;;3.00;2.00;;;;;26.19;27.52;99952.25;4976417;28;45577;-74
2022/08/14 00:31:16;;;;;;;;;3.00;3.00;;;;;26.10;27.44;99936.88;4976262;28;46297;-74
2022/08/14 00:33:41;;;;;;;;;2.00;2.00;;;;;26.10;27.94;99942.28;4973860;28;45513;-75
2022/08/14 00:36:08;;;;;;;;;3.50;1.50;;;;;26.05;27.85;99938.19;4975742;28;45808;-73
2022/08/14 00:38:34;;;;;;;;;5.00;4.25;;;;;26.03;27.63;99936.63;5007446;28;45396;-74
2022/08/14 00:40:59;;;;;;;;;5.00;3.00;;;;;25.99;28.14;99941.44;4975121;28;45404;-74
2022/08/14 00:43:25;;;;;;;;;4.00;4.00;;;;;25.93;27.97;99941.16;4976040;28;45362;-74
2022/08/14 00:45:51;;;;;;;;;3.00;3.00;;;;;25.91;28.26;99940.47;4976783;28;45388;-75
2022/08/14 00:48:17;;;;;;;;;3.50;2.50;;;;;25.88;28.18;99938.88;4975964;28;45327;-74
2022/08/14 00:50:43;;;;;;;;;3.00;3.00;;;;;25.83;28.34;99936.63;4975745;28;45384;-74
2022/08/14 00:53:09;;;;;;;;;2.00;2.00;;;;;25.81;28.30;99930.50;4976274;28;45352;-75
2022/08/14 00:55:35;;;;;;;;;2.50;2.50;;;;;25.76;28.53;99930.06;4975615;28;45408;-75
2022/08/14 01:00:47;;;;;;;;;2.00;2.00;;;;;25.69;28.95;99928.94;4975694;28;45528;-74
2022/08/14 01:03:16;;;;;;;;;3.25;2.00;;;;;25.62;29.09;99923.25;4975442;28;45437;-74
2022/08/14 01:05:48;;;;;;;;;3.00;3.00;;;;;25.60;29.02;99925.25;4975151;28;45352;-73
2022/08/14 01:08:17;;;;;;;;;2.75;2.75;;;;;25.53;29.05;99913.31;4976629;28;45509;-74
2022/08/14 01:10:50;;;;;;;;;2.00;2.00;;;;;25.50;29.11;99908.19;4993251;28;46376;-74
2022/08/14 01:13:19;;;;;;;;;3.00;3.00;;;;;25.44;29.41;99895.22;4995093;28;45469;-74
2022/08/14 01:15:47;;;;;;;;;3.00;3.00;;;;;25.38;29.38;99893.09;4995470;28;45743;-74
2022/08/14 01:21:09;;;;;;;;;4.00;2.50;;;;;25.30;29.90;99881.13;4993467;28;45691;-74
2022/08/14 01:23:42;;;;;;;;;3.50;3.50;;;;;25.27;29.76;99892.22;4991556;28;45583;-74
2022/08/14 01:26:08;;;;;;;;;2.75;2.75;;;;;25.27;29.88;99875.97;4974767;28;45450;-75
2022/08/14 01:28:37;;;;;;;;;4.00;4.00;;;;;25.25;29.98;99879.81;4975375;28;45521;-74
2022/08/14 01:31:07;;;;;;;;;2.75;2.75;;;;;25.20;29.86;99880.25;4975132;28;46369;-75
2022/08/14 01:33:37;;;;;;;;;4.00;4.00;;;;;25.17;30.17;99880.53;4975366;28;45447;-73
2022/08/14 01:36:03;;;;;;;;;3.25;3.25;;;;;25.15;30.25;99887.94;4974763;28;45410;-74
2022/08/14 01:38:33;;;;;;;;;2.25;2.25;;;;;25.10;30.38;99882.97;4975318;28;45543;-74
2022/08/14 01:41:07;;;;;;;;;4.75;3.50;;;;;25.07;30.72;99891.34;4974040;28;46214;-74
2022/08/14 01:43:41;;;;;;;;;3.00;3.00;;;;;25.07;30.19;99890.47;4975385;28;45484;-74
2022/08/14 01:46:10;;;;;;;;;3.00;1.50;;;;;25.03;30.73;99892.63;4975278;28;45453;-74
2022/08/14 01:48:37;;;;;;;;;1.00;1.00;;;;;25.00;30.46;99882.94;4974817;28;45446;-74
2022/08/14 01:51:03;;;;;;;;;4.00;4.00;;;;;24.93;30.53;99873.69;4973162;28;46593;-74
2022/08/14 01:53:30;;;;;;;;;3.00;3.00;;;;;24.96;30.86;99881.53;4975110;28;45394;-74
2022/08/14 01:55:58;;;;;;;;;5.25;4.00;;;;;24.97;30.86;99880.50;4975065;28;45510;-74
2022/08/14 01:58:26;;;;;;;;;4.75;4.75;;;;;24.98;30.55;99887.63;4974739;28;45409;-74
2022/08/14 02:00:53;;;;;;;;;3.50;3.50;;;;;24.96;30.69;99873.41;4974490;28;45520;-74
2022/08/14 02:03:19;;;;;;;;;3.75;3.75;;;;;24.94;30.79;99875.38;4974078;28;45375;-74
2022/08/14 02:05:44;;;;;;;;;4.00;4.00;;;;;24.91;30.55;99881.06;4974592;28;45402;-74
2022/08/14 02:08:10;;;;;;;;;3.00;3.00;;;;;24.90;31.12;99876.69;4974841;28;45551;-73
2022/08/14 02:10:40;;;;;;;;;3.00;3.00;;;;;24.84;31.74;99871.84;4974196;28;46265;-74
2022/08/14 02:13:07;;;;;;;;;7.25;4.75;;;;;24.77;31.71;99862.56;4979203;28;45462;-74
2022/08/14 02:15:33;;;;;;;;;2.50;2.50;;;;;24.80;31.40;99865.00;4981389;28;45516;-74
2022/08/14 02:18:03;;;;;;;;;4.00;4.00;;;;;24.80;31.66;99862.28;4981173;28;45309;-73
2022/08/14 02:20:32;;;;;;;;;4.00;4.00;;;;;24.72;31.61;99848.63;4980629;28;46118;-73
2022/08/14 02:22:59;;;;;;;;;4.00;3.00;;;;;24.76;31.29;99861.69;4980978;28;45431;-74
2022/08/14 02:25:25;;;;;;;;;3.00;3.00;;;;;24.71;31.42;99849.63;4980577;28;45329;-74
2022/08/14 02:27:53;;;;;;;;;3.75;3.75;;;;;24.74;31.52;99852.06;4981157;28;45405;-74
2022/08/14 02:30:18;;;;;;;;;4.50;4.50;;;;;24.71;31.50;99846.94;4980623;28;45537;-74
2022/08/14 02:32:44;;;;;;;;;5.75;3.00;;;;;24.69;31.43;99840.78;4981295;28;45542;-74
2022/08/14 02:35:17;;;;;;;;;3.25;3.25;;;;;24.68;31.63;99847.22;4981126;28;45538;-72
2022/08/14 02:37:45;;;;;;;;;5.00;4.00;;;;;24.65;31.56;99842.94;4980744;28;45375;-74
2022/08/14 02:40:11;;;;;;;;;2.25;2.25;;;;;24.63;31.96;99840.38;4980307;28;46172;-74
2022/08/14 02:42:38;;;;;;;;;4.00;4.00;;;;;24.58;31.77;99834.53;4980847;28;45397;-75
2022/08/14 02:45:05;;;;;;;;;4.00;4.00;;;;;24.57;32.00;99830.09;4981169;28;45450;-72
2022/08/14 02:47:31;;;;;;;;;3.00;3.00;;;;;24.57;31.99;99834.66;4980733;28;45471;-74
2022/08/14 02:49:56;;;;;;;;;3.00;3.00;;;;;24.54;31.86;99824.97;4980520;28;45479;-73
2022/08/14 02:52:22;;;;;;;;;4.75;3.25;;;;;24.50;31.82;99826.22;4980581;28;45494;-74
2022/08/14 02:54:48;;;;;;;;;4.00;4.00;;;;;24.46;32.06;99816.69;4980638;28;45486;-74
2022/08/14 02:57:14;;;;;;;;;3.25;3.25;;;;;24.37;31.87;99806.72;4980740;28;45387;-75
2022/08/14 02:59:40;;;;;;;;;4.75;4.00;;;;;24.39;31.75;99811.00;4980163;28;45369;-75
2022/08/14 03:02:06;;;;;;;;;4.50;4.50;;;;;24.35;31.94;99814.13;4979998;28;45713;-74
2022/08/14 03:04:31;;;;;;;;;4.25;4.25;;;;;24.35;31.72;99819.50;4980550;28;45359;-74
2022/08/14 03:06:57;;;;;;;;;4.75;4.75;;;;;24.26;31.91;99816.66;4980420;28;45321;-74
2022/08/14 03:09:23;;;;;;;;;3.25;3.25;;;;;24.27;32.21;99818.34;4979655;28;45392;-74
2022/08/14 03:11:48;;;;;;;;;4.00;4.00;;;;;24.26;32.22;99823.88;4980857;28;45420;-74
2022/08/14 03:14:14;;;;;;;;;5.25;4.25;;;;;24.26;32.38;99822.06;4980894;28;45456;-73
2022/08/14 03:16:40;;;;;;;;;4.00;4.00;;;;;24.24;31.88;99823.19;4980039;28;45352;-73
2022/08/14 03:19:06;;;;;;;;;7.00;4.25;;;;;24.23;32.17;99830.44;4980293;28;46229;-74
2022/08/14 03:21:34;;;;;;;;;5.75;5.75;;;;;24.22;32.26;99826.03;4980546;28;45423;-74
2022/08/14 03:24:09;;;;;;;;;4.75;3.50;;;;;24.20;32.57;99830.72;4977576;28;45478;-73
2022/08/14 03:26:35;;;;;;;;;5.25;5.25;;;;;24.13;32.59;99818.75;4976052;28;45558;-74
2022/08/14 03:29:01;;;;;;;;;3.50;3.50;;;;;24.17;32.17;99822.00;4976800;28;45538;-74
2022/08/14 03:31:27;;;;;;;;;5.75;5.75;;;;;24.10;32.28;99816.31;4976700;28;45404;-74
2022/08/14 03:33:54;;;;;;;;;4.00;4.00;;;;;24.08;32.74;99816.44;4977559;28;45480;-74
2022/08/14 03:36:21;;;;;;;;;3.50;3.50;;;;;24.06;32.81;99812.16;4975822;28;45410;-73
2022/08/14 03:38:51;;;;;;;;;4.00;4.00;;;;;24.03;32.74;99815.16;4976359;28;46073;-74
2022/08/14 03:41:22;;;;;;;;;3.00;3.00;;;;;24.03;32.47;99818.69;4976358;28;45396;-74
2022/08/14 03:44:00;;;;;;;;;4.75;4.75;;;;;24.06;32.72;99825.66;4977103;28;45504;-75
2022/08/14 03:46:30;;;;;;;;;5.00;5.00;;;;;24.04;33.26;99827.66;4976959;28;45439;-74
2022/08/14 03:48:56;;;;;;;;;3.00;3.00;;;;;24.00;32.87;99820.81;4976621;28;46290;-74
2022/08/14 03:51:27;;;;;;;;;5.75;5.25;;;;;24.00;32.97;99826.22;4976922;28;45475;-74
2022/08/14 03:53:58;;;;;;;;;3.50;3.50;;;;;24.00;33.14;99837.00;4976347;28;45499;-74
2022/08/14 03:56:26;;;;;;;;;5.50;4.50;;;;;23.98;32.84;99837.13;4976682;28;45407;-75
2022/08/14 03:58:57;;;;;;;;;7.00;6.00;;;;;23.98;32.82;99841.69;4975923;28;46603;-74
2022/08/14 04:01:24;;;;;;;;;3.75;3.75;;;;;23.93;33.34;99839.41;4977091;28;45443;-75
2022/08/14 04:03:53;;;;;;;;;4.50;4.50;;;;;23.92;33.08;99846.63;4976292;28;45495;-73
2022/08/14 04:06:22;;;;;;;;;5.75;5.75;;;;;23.91;32.75;99860.25;4976317;28;45281;-73
2022/08/14 04:08:48;;;;;;;;;4.00;4.00;;;;;23.86;33.16;99857.94;4991045;28;47307;-74
2022/08/14 04:11:15;;;;;;;;;4.00;4.00;;;;;23.81;33.41;99849.38;4977652;28;45344;-73
2022/08/14 04:13:42;;;;;;;;;4.00;2.00;;;;;23.78;33.07;99846.94;4975564;28;45425;-74
2022/08/14 04:16:16;;;;;;;;;5.00;5.00;;;;;23.81;33.77;99853.91;4977289;28;45435;-74
2022/08/14 04:18:45;;;;;;;;;4.25;4.25;;;;;23.77;33.53;99847.94;4976848;28;45320;-74
2022/08/14 04:21:12;;;;;;;;;4.00;4.00;;;;;23.78;33.71;99865.84;4976258;28;45382;-74
2022/08/14 04:23:38;;;;;;;;;4.00;4.00;;;;;23.73;33.66;99852.75;4976327;28;45391;-75
2022/08/14 04:26:07;;;;;;;;;2.75;2.75;;;;;23.71;33.72;99859.25;4975619;28;45727;-74
2022/08/14 04:28:35;;;;;;;;;2.75;2.75;;;;;23.70;33.78;99852.13;4975461;28;45638;-74
2022/08/14 04:31:01;;;;;;;;;4.50;4.00;;;;;23.70;33.75;99854.84;4975987;28;45509;-74
2022/08/14 04:33:27;;;;;;;;;7.25;6.00;;;;;23.60;33.96;99831.34;4976275;28;45459;-73
2022/08/14 04:35:53;;;;;;;;;3.00;3.00;;;;;23.65;34.15;99828.25;4975714;28;45633;-74
2022/08/14 04:43:48;;;;;;;;;3.00;3.00;;;;;23.68;34.02;99825.31;4976542;28;45499;-73
2022/08/14 04:46:17;;;;;;;;;4.00;4.00;;;;;23.65;33.68;99820.16;4976069;28;45511;-74
2022/08/14 04:48:42;;;;;;;;;3.00;3.00;;;;;23.68;33.86;99821.75;4976059;28;46183;-73
2022/08/14 04:51:10;;;;;;;;;4.00;4.00;;;;;23.66;33.41;99812.97;4975995;28;45329;-73
2022/08/14 04:53:40;;;;;;;;;5.50;5.50;;;;;23.66;33.47;99802.16;4975611;28;45679;-74
2022/08/14 04:56:05;;;;;;;;;3.75;3.75;;;;;23.68;33.46;99797.47;4975657;28;45422;-74
2022/08/14 04:58:33;;;;;;;;;4.00;4.00;;;;;23.67;34.09;99799.34;4975057;28;45774;-74
2022/08/14 05:00:59;;;;;;;;;3.50;3.50;;;;;23.67;33.67;99804.72;4975359;28;45492;-73
2022/08/14 05:03:28;;;;;;;;;4.50;3.75;;;;;23.74;33.59;99789.69;4974295;28;45513;-74
2022/08/14 05:05:56;;;;;;;;;7.00;7.00;;;;;23.89;33.39;99782.13;4975840;28;45708;-73
2022/08/14 05:08:22;;;;;;;;;2.25;2.25;;;;;23.79;33.51;99789.28;4975782;28;45387;-74
2022/08/14 05:10:53;;;;;;;;;3.50;3.00;;;;;23.67;33.79;99782.28;4975917;28;45393;-74
2022/08/14 05:13:20;;;;;;;;;4.75;4.75;;;;;23.73;33.77;99789.84;4975701;28;45431;-74
2022/08/14 05:15:46;;;;;;;;;3.25;2.25;;;;;23.68;33.50;99781.31;4975645;28;45459;-74
2022/08/14 05:18:14;;;;;;;;;4.75;4.00;;;;;23.66;34.19;99786.00;4975285;28;46165;-74
2022/08/14 05:20:44;;;;;;;;;4.50;3.00;;;;;23.64;34.37;99806.81;4975493;28;45411;-73
2022/08/14 05:23:10;;;;;;;;;0.25;0.25;;;;;23.62;34.32;99803.41;4974128;28;45414;-74
2022/08/14 05:25:36;;;;;;;;;3.75;3.00;;;;;23.64;34.64;99812.22;4974551;28;45331;-73
2022/08/14 05:28:08;;;;;;;;;5.50;4.00;;;;;23.65;34.08;99813.94;4975550;28;46387;-75
2022/08/14 05:30:34;;;;;;;;;3.00;3.00;;;;;23.66;34.19;99818.34;4975443;28;45429;-76
2022/08/14 05:33:00;;;;;;;;;3.00;3.00;;;;;23.66;34.22;99818.34;4975258;28;45406;-74
2022/08/14 05:35:25;;;;;;;;;3.00;3.00;;;;;23.72;34.23;99812.41;4975256;28;45568;-74
2022/08/14 05:37:51;;;;;;;;;3.00;3.00;;;;;23.76;34.42;99806.63;4974576;28;46021;-74
2022/08/14 05:40:17;;;;;;;;;2.50;2.50;;;;;23.81;34.29;99795.44;4974340;28;45501;-74
2022/08/14 05:42:42;;;;;;;;;4.25;4.25;;;;;23.93;33.95;99802.47;4974627;28;45788;-73
2022/08/14 05:45:08;;;;;;;;;4.00;4.00;;;;;24.55;32.99;99796.97;4990258;28;45738;-74
2022/08/14 05:47:38;;;;;;;;;3.00;3.00;;;;;25.61;32.73;99769.22;4974046;28;45596;-75
2022/08/14 05:50:05;;;;;;;;;3.50;3.00;;;;;26.72;30.48;99775.53;4975151;28;45458;-74
2022/08/14 05:52:30;;;;;;;;;3.75;3.75;;;;;27.63;29.09;99774.41;4975981;28;45417;-75
2022/08/14 05:54:57;;;;;;;;;4.00;3.50;;;;;28.53;28.69;99770.38;4974363;28;45645;-75
2022/08/14 05:57:22;;;;;;;;;3.00;3.00;;;;;29.35;27.62;99775.91;4974703;28;45454;-75
2022/08/14 05:59:47;;;;;;;;;3.75;3.75;;;;;30.16;26.54;99767.69;4974956;28;45382;-75
2022/08/14 06:02:12;;;;;;;;;3.50;3.50;;;;;30.80;25.10;99763.94;4974819;28;45341;-74
2022/08/14 06:04:38;;;;;;;;;2.75;2.75;;;;;31.50;25.10;99770.16;4975145;28;45348;-75
2022/08/14 06:07:04;;;;;;;;;4.00;3.50;;;;;31.70;24.09;99765.91;4974462;28;46161;-76
2022/08/14 06:09:30;;;;;;;;;4.00;4.00;;;;;31.86;23.61;99766.72;4972531;28;45448;-75
2022/08/14 06:11:55;;;;;;;;;4.00;3.00;;;;;31.88;23.40;99760.03;4975216;28;45460;-76
2022/08/14 06:14:21;;;;;;;;;2.75;2.75;;;;;31.74;23.50;99765.50;4974485;28;45662;-75
2022/08/14 06:16:46;;;;;;;;;3.00;3.00;;;;;31.39;24.11;99763.28;4974934;28;45442;-74
2022/08/14 06:19:12;;;;;;;;;3.50;3.50;;;;;31.30;24.35;99765.25;4974436;28;45467;-75
2022/08/14 06:21:37;;;;;;;;;3.00;3.00;;;;;31.16;24.41;99761.44;4974272;28;45439;-75
2022/08/14 06:24:03;;;;;;;;;3.75;3.75;;;;;31.03;23.75;99760.38;4974246;28;45356;-75
2022/08/14 06:26:28;;;;;;;;;3.00;3.00;;;;;30.86;24.82;99760.47;4973988;28;46222;-75
2022/08/14 06:28:53;;;;;;;;;5.25;4.25;;;;;30.71;24.54;99759.56;4974541;28;45324;-75
2022/08/14 06:31:19;;;;;;;;;2.50;2.50;;;;;30.50;24.44;99760.22;4974806;28;45481;-75
2022/08/14 06:33:45;;;;;;;;;2.00;2.00;;;;;30.24;25.11;99774.97;4972804;28;45758;-75
2022/08/14 06:36:10;;;;;;;;;3.00;3.00;;;;;29.78;25.52;99770.19;4974455;28;46246;-76
2022/08/14 06:38:35;;;;;;;;;5.50;4.50;;;;;29.39;26.77;99779.13;4974050;28;45495;-75
2022/08/14 06:41:01;;;;;;;;;3.50;3.00;;;;;29.07;26.47;99783.53;4974466;28;45376;-76
2022/08/14 06:43:26;;;;;;;;;3.50;3.00;;;;;28.69;27.86;99781.28;4974281;28;45454;-75
2022/08/14 06:45:51;;;;;;;;;5.25;5.25;;;;;28.53;27.82;99781.25;4974072;28;46004;-75
2022/08/14 06:48:20;;;;;;;;;6.25;6.00;;;;;28.33;28.10;99783.38;4974033;28;45462;-75
2022/08/14 06:50:46;;;;;;;;;7.00;6.00;;;;;27.98;28.25;99782.56;4972668;28;45495;-75
2022/08/14 06:53:13;;;;;;;;;8.75;8.00;;;;;27.59;28.62;99783.03;4973856;28;45498;-74
2022/08/14 06:55:40;;;;;;;;;8.00;6.25;;;;;27.38;29.08;99796.94;4973918;28;45438;-75
2022/08/14 06:58:10;;;;;;;;;4.00;4.00;;;;;27.10;29.41;99797.00;4974547;28;45399;-76
2022/08/14 07:00:36;;;;;;;;;4.75;4.25;;;;;26.83;29.76;99797.97;4977749;28;45352;-76
2022/08/14 07:05:46;;;;;;;;;4.00;4.00;;;;;26.50;30.60;99797.59;4977391;28;45363;-76
2022/08/14 07:08:17;;;;;;;;;3.00;3.00;;;;;26.52;30.91;99801.00;4976461;28;45324;-74
2022/08/14 07:10:48;;;;;;;;;4.75;4.75;;;;;26.55;30.64;99800.69;4977264;28;45451;-76
2022/08/14 07:13:14;;;;;;;;;5.25;4.00;;;;;26.58;30.73;99811.22;4977339;28;45444;-76
2022/08/14 07:15:41;;;;;;;;;4.50;4.50;;;;;26.67;30.90;99815.75;4976533;28;45425;-77
2022/08/14 07:18:08;;;;;;;;;4.50;4.50;;;;;26.83;30.39;99814.22;4977300;28;45418;-77
2022/08/14 07:20:33;;;;;;;;;4.00;4.00;;;;;26.97;30.41;99816.41;4977130;28;45352;-76
2022/08/14 07:23:05;;;;;;;;;6.00;5.25;;;;;26.98;30.32;99818.13;4977368;28;45521;-76
2022/08/14 07:25:31;;;;;;;;;3.25;3.25;;;;;27.13;29.92;99813.84;4977088;28;46026;-76
2022/08/14 07:27:56;;;;;;;;;3.50;3.50;;;;;27.49;30.49;99807.53;4976865;28;45462;-76
2022/08/14 07:30:22;;;;;;;;;3.75;3.00;;;;;28.00;29.90;99796.84;4977011;28;45550;-76
2022/08/14 07:32:48;;;;;;;;;5.00;4.00;;;;;28.61;29.22;99791.31;4978429;28;45542;-76
2022/08/14 07:35:14;;;;;;;;;3.25;3.25;;;;;29.37;27.69;99800.22;4977972;28;45492;-76
2022/08/14 07:37:40;;;;;;;;;4.00;4.00;;;;;30.06;26.60;99808.78;4977391;28;45550;-76
2022/08/14 07:40:06;;;;;;;;;5.00;5.00;;;;;30.93;26.49;99806.94;4977241;28;45386;-76
2022/08/14 07:42:32;;;;;;;;;3.50;3.50;;;;;31.99;24.43;99796.97;4977492;28;45454;-77
2022/08/14 07:44:59;;;;;;;;;5.00;4.00;;;;;32.99;23.47;99789.09;4975551;28;47945;-75
2022/08/14 07:47:25;;;;;;;;;5.50;4.75;;;;;33.82;22.31;99789.38;4976661;28;45423;-77
2022/08/14 07:49:56;;;;;;;;;5.00;3.25;;;;;34.63;21.67;99776.88;4976751;28;45487;-76
2022/08/14 07:52:21;;;;;;;;;6.00;5.00;;;;;34.69;20.99;99765.06;4975441;28;45398;-75
2022/08/14 07:54:46;;;;;;;;;3.25;3.25;;;;;34.45;20.98;99766.53;4975785;28;45524;-76
2022/08/14 07:57:12;;;;;;;;;3.00;3.00;;;;;34.16;21.06;99768.50;4975400;28;45450;-77
2022/08/14 07:59:37;;;;;;;;;4.00;4.00;;;;;33.64;21.67;99767.97;4977071;28;45401;-76
2022/08/14 08:02:03;;;;;;;;;5.00;4.00;;;;;33.61;21.82;99764.78;4975309;28;45524;-76
2022/08/14 08:04:30;;;;;;;;;4.25;4.25;;;;;34.29;21.18;99770.47;4976210;28;46656;-77
2022/08/14 08:06:55;;;;;;;;;3.00;3.00;;;;;35.05;20.50;99765.78;4976096;28;45494;-75
2022/08/14 08:09:26;;;;;;;;;3.00;3.00;;;;;35.71;20.04;99750.31;4974669;28;45882;-76
2022/08/14 08:11:53;;;;;;;;;4.00;4.00;;;;;36.29;19.73;99763.31;4976028;28;45542;-77
2022/08/14 08:14:19;;;;;;;;;6.25;5.00;;;;;36.96;19.07;99762.91;4976166;28;45446;-75
2022/08/14 08:16:46;;;;;;;;;4.00;4.00;;;;;37.66;19.22;99775.66;4976205;28;45460;-74
2022/08/14 08:19:11;;;;;;;;;5.00;4.75;;;;;37.87;18.81;99774.41;4976687;28;45543;-74
2022/08/14 08:21:40;;;;;;;;;4.00;4.00;;;;;37.73;18.59;99772.84;4974602;28;45560;-75
2022/08/14 08:24:05;;;;;;;;;3.00;3.00;;;;;37.56;18.92;99787.19;4975801;28;45352;-75
2022/08/14 08:26:30;;;;;;;;;3.50;3.50;;;;;37.05;19.45;99789.09;4976131;28;45392;-76
2022/08/14 08:28:58;;;;;;;;;6.00;5.00;;;;;36.95;19.73;99797.00;4976087;28;45377;-75
2022/08/14 08:31:25;;;;;;;;;6.50;4.50;;;;;37.23;20.29;99804.88;4976331;28;45413;-75
2022/08/14 08:33:51;;;;;;;;;5.75;5.75;;;;;37.59;19.62;99799.66;4975692;28;46267;-75
2022/08/14 08:36:17;;;;;;;;;5.00;5.00;;;;;38.17;19.53;99792.91;4975796;28;45591;-76
2022/08/14 08:38:44;;;;;;;;;6.00;6.00;;;;;38.74;19.28;99800.91;4974755;28;45942;-76
2022/08/14 08:41:10;;;;;;;;;4.00;4.00;;;;;39.05;20.22;99769.41;4974519;28;45567;-76
2022/08/14 08:43:35;;;;;;;;;6.25;5.00;;;;;39.60;19.86;99784.00;4976473;28;45578;-74
2022/08/14 08:46:14;;;;;;;;;5.00;5.00;;;;;39.92;19.56;99780.84;4975701;28;45320;-75
2022/08/14 08:48:55;;;;;;;;;4.00;4.00;;;;;40.03;19.83;99776.44;4975689;28;45502;-74
2022/08/14 08:51:26;;;;;;;;;3.00;3.00;;;;;40.31;18.93;99757.09;4976169;28;45374;-75
2022/08/14 08:54:14;;;;;;;;;4.25;4.00;;;;;39.71;20.11;99744.47;4975096;28;45583;-74
2022/08/14 08:56:48;;;;;;;;;3.75;3.75;;;;;40.14;20.62;99745.94;4972947;28;45378;-74
2022/08/14 08:59:25;;;;;;;;;4.50;3.00;;;;;40.18;19.92;99745.44;4975877;28;45395;-75
2022/08/14 09:01:57;;;;;;;;;4.00;4.00;;;;;39.87;19.71;99755.84;4975724;28;45349;-75
2022/08/14 09:04:33;;;;;;;;;5.00;5.00;;;;;39.52;21.37;99762.25;4975022;28;45352;-75
2022/08/14 09:06:59;;;;;;;;;3.50;3.50;;;;;38.99;20.52;99769.50;4975668;28;45518;-75
2022/08/14 09:09:29;;;;;;;;;4.25;4.25;;;;;38.42;20.67;99767.13;4975103;28;45416;-75
2022/08/14 09:11:57;;;;;;;;;4.00;4.00;;;;;38.16;21.92;99766.41;4976101;28;45622;-74
2022/08/14 09:14:24;;;;;;;;;2.25;2.25;;;;;37.83;21.76;99762.97;4974404;28;46148;-74
2022/08/14 09:16:50;;;;;;;;;4.25;3.50;;;;;37.77;21.93;99752.84;4975578;28;45429;-76
2022/08/14 09:19:16;;;;;;;;;4.25;3.25;;;;;37.42;22.33;99750.66;4975020;28;45531;-74
2022/08/14 09:21:43;;;;;;;;;4.25;3.25;;;;;37.22;22.75;99745.31;4974597;28;45439;-75
2022/08/14 09:24:09;;;;;;;;;5.00;5.00;;;;;37.03;22.54;99757.34;4974592;28;45589;-75
2022/08/14 09:26:35;;;;;;;;;4.75;4.75;;;;;36.84;23.02;99757.28;4975188;28;45467;-74
2022/08/14 09:29:03;;;;;;;;;5.00;5.00;;;;;36.97;23.27;99767.31;5007154;28;45448;-76
2022/08/14 09:31:31;;;;;;;;;5.00;5.00;;;;;37.40;22.83;99751.94;4974145;28;45416;-77
2022/08/14 09:34:32;;;;;;;;;5.00;5.00;;;;;37.73;22.05;99765.41;4975089;28;46072;-75
2022/08/14 09:37:07;;;;;;;;;4.00;3.75;;;;;37.90;21.61;99771.19;4975382;28;45522;-75
2022/08/14 09:40:10;;;;;;;;;3.50;3.50;;;;;38.38;21.60;99764.84;4973387;28;45491;-75
2022/08/14 09:42:51;;;;;;;;;5.50;4.00;;;;;38.49;21.78;99766.00;4975431;28;45419;-76
2022/08/14 09:45:31;;;;;;;;;4.75;4.00;;;;;38.45;21.31;99763.94;4974914;28;45531;-76
2022/08/14 09:47:57;;;;;;;;;4.00;4.00;;;;;38.59;21.68;99765.41;4974637;28;45442;-75
2022/08/14 09:50:28;;;;;;;;;5.75;5.75;;;;;38.71;21.09;99771.84;4975212;28;45712;-75
2022/08/14 09:53:01;;;;;;;;;3.00;3.00;;;;;38.38;21.52;99759.31;4975184;28;45460;-74
2022/08/14 09:55:32;;;;;;;;;5.00;5.00;;;;;38.60;21.63;99758.84;4972978;28;48487;-75
2022/08/14 09:58:13;;;;;;;;;3.75;3.75;;;;;38.90;20.53;99749.69;4975282;28;45402;-75
2022/08/14 10:00:48;;;;;;;;;4.75;4.00;;;;;38.88;21.43;99732.53;4975312;28;45463;-75
2022/08/14 10:03:25;;;;;;;;;5.50;5.50;;;;;39.36;21.28;99747.22;4974812;28;45459;-75
2022/08/14 10:06:02;;;;;;;;;3.75;3.75;;;;;39.54;20.46;99746.25;4973437;28;46383;-75
2022/08/14 10:08:40;;;;;;;;;3.75;3.25;;;;;39.39;20.89;99747.59;4974403;28;45339;-75
2022/08/14 10:11:36;;;;;;;;;1.75;1.75;;;;;39.18;20.58;99746.28;4974496;28;45420;-75
2022/08/14 10:14:20;;;;;;;;;4.00;4.00;;;;;39.04;20.49;99739.25;4974526;28;45654;-75
2022/08/14 10:16:53;;;;;;;;;4.00;2.75;;;;;38.66;20.83;99744.13;4974601;28;45423;-75
2022/08/14 10:19:23;;;;;;;;;3.00;3.00;;;;;38.54;21.47;99740.47;4974729;28;45416;-76
2022/08/14 10:22:07;;;;;;;;;5.00;4.00;;;;;38.22;21.34;99755.31;4974716;28;45489;-75
2022/08/14 10:24:43;;;;;;;;;4.00;4.00;;;;;37.85;21.70;99743.44;4974117;28;45427;-75
2022/08/14 10:27:23;;;;;;;;;5.50;4.75;;;;;37.56;21.85;99745.03;4974482;28;45466;-75
2022/08/14 10:29:53;;;;;;;;;5.50;3.75;;;;;37.19;22.43;99755.91;4974876;28;45466;-74
2022/08/14 10:32:21;;;;;;;;;5.50;3.75;;;;;36.96;23.04;99769.25;4973998;28;45510;-75
2022/08/14 10:34:48;;;;;;;;;3.00;3.00;;;;;36.72;22.67;99775.53;4977217;28;45376;-75
2022/08/14 10:37:16;;;;;;;;;5.50;4.50;;;;;36.37;23.61;99768.53;4978088;28;45440;-73
2022/08/14 10:39:57;;;;;;;;;3.00;3.00;;;;;36.28;23.34;99778.94;4975644;28;45386;-74
2022/08/14 10:42:35;;;;;;;;;1.00;1.00;;;;;36.32;24.08;99786.75;4978179;28;45462;-75
2022/08/14 10:45:00;;;;;;;;;5.75;3.75;;;;;36.24;22.83;99780.38;4977767;28;45273;-75
2022/08/14 10:47:33;;;;;;;;;3.00;3.00;;;;;36.23;24.03;99769.63;4977359;28;45642;-75
2022/08/14 10:50:00;;;;;;;;;2.50;2.50;;;;;36.31;23.86;99774.91;4977923;28;45496;-74
2022/08/14 10:52:30;;;;;;;;;4.75;4.75;;;;;36.11;24.80;99777.72;4977740;28;45494;-75
2022/08/14 10:55:14;;;;;;;;;6.50;5.25;;;;;36.13;23.81;99764.59;4976021;28;45453;-77
2022/08/14 10:57:46;;;;;;;;;3.00;3.00;;;;;36.12;24.67;99773.91;4977157;28;45480;-76
2022/08/14 11:00:15;;;;;;;;;4.50;4.50;;;;;36.05;24.39;99773.94;4977185;28;45409;-76
2022/08/14 11:02:41;;;;;;;;;6.75;4.00;;;;;36.00;24.44;99775.63;4977844;28;45438;-76
2022/08/14 11:05:13;;;;;;;;;2.75;2.75;;;;;35.80;24.65;99771.03;4977618;28;45520;-76
2022/08/14 11:07:42;;;;;;;;;3.25;3.00;;;;;35.65;24.77;99767.66;4977356;28;46395;-77
2022/08/14 11:10:13;;;;;;;;;4.75;4.00;;;;;35.39;25.19;99780.38;4977068;28;45603;-77
2022/08/14 11:12:45;;;;;;;;;3.25;3.00;;;;;35.25;25.28;99776.78;4976219;28;45438;-76
2022/08/14 11:15:11;;;;;;;;;4.00;4.00;;;;;35.09;24.86;99774.44;4977074;28;45479;-76
2022/08/14 11:17:37;;;;;;;;;3.75;3.75;;;;;34.97;25.29;99788.81;4977343;28;48777;-75
2022/08/14 11:20:07;;;;;;;;;7.25;4.25;;;;;34.74;26.22;99777.34;4977476;28;45470;-76
2022/08/14 11:22:33;;;;;;;;;2.25;2.25;;;;;34.68;26.10;99788.09;4977255;28;45388;-76
2022/08/14 11:25:04;;;;;;;;;5.00;5.00;;;;;34.51;26.88;99786.75;4976497;28;45489;-76
2022/08/14 11:27:31;;;;;;;;;6.00;6.00;;;;;34.30;25.98;99788.63;4976977;28;46303;-76
2022/08/14 11:30:05;;;;;;;;;6.75;5.00;;;;;34.23;26.66;99781.38;4977052;28;45606;-76
2022/08/14 11:32:31;;;;;;;;;7.00;5.75;;;;;33.91;27.27;99781.03;4978170;28;45471;-76
2022/08/14 11:35:02;;;;;;;;;5.50;5.50;;;;;33.72;27.33;99779.81;4977265;28;45536;-76
2022/08/14 11:37:32;;;;;;;;;5.50;5.00;;;;;33.52;28.27;99782.44;4977045;28;45478;-78
2022/08/14 11:39:58;;;;;;;;;4.75;4.25;;;;;33.44;28.51;99788.91;4976176;28;45405;-76
2022/08/14 11:42:25;;;;;;;;;6.00;4.25;;;;;33.28;28.88;99787.28;4975767;28;45491;-77
2022/08/14 11:44:54;;;;;;;;;4.25;4.25;;;;;33.05;29.08;99796.53;4974364;28;45479;-76
2022/08/14 11:47:20;;;;;;;;;5.00;5.00;;;;;33.06;28.95;99797.41;4975479;28;46408;-77
2022/08/14 11:49:47;;;;;;;;;5.00;5.00;;;;;32.89;29.70;99802.28;4976527;28;45383;-76
2022/08/14 11:52:17;;;;;;;;;4.00;4.00;;;;;32.79;29.94;99801.75;4977295;28;45322;-76
2022/08/14 11:54:45;;;;;;;;;5.00;5.00;;;;;32.56;30.40;99792.66;4974829;28;45501;-75